Terminal Aerodrome Forecast
Issued by NWS Sterling, VA

Current Version | Previous Version | Text Only | Print | Product List | Glossary On
Versions: 1 2 3 4 5 6 7 8 9 10 11 12 13
000
FTUS41 KLWX 301100
TAFMRB
TAF
KMRB 301131Z 3012/3112 00000KT P6SM SCT040
     FM301700 16009KT P6SM BKN090
     FM310300 16006KT 5SM BR BKN250
     FM310600 17005KT 3SM BR BKN050=

USA.gov is the U.S. government's official web portal to all federal, state and local government web resources and services.